sensor_id;sensor_type;location;lat;lon;timestamp;P1;durP1;ratioP1;P2;durP2;ratioP2
7410;SDS011;3747;48.628;9.058;2023-03-01T00:00:07;20.83;;;13.40;;
7410;SDS011;3747;48.628;9.058;2023-03-01T00:02:34;21.60;;;13.57;;
7410;SDS011;3747;48.628;9.058;2023-03-01T00:05:03;21.77;;;16.92;;
7410;SDS011;3747;48.628;9.058;2023-03-01T00:07:32;18.10;;;13.90;;
7410;SDS011;3747;48.628;9.058;2023-03-01T00:09:59;23.65;;;17.45;;
7410;SDS011;3747;48.628;9.058;2023-03-01T00:12:25;20.37;;;14.80;;
7410;SDS011;3747;48.628;9.058;2023-03-01T00:14:52;22.17;;;14.30;;
7410;SDS011;3747;48.628;9.058;2023-03-01T00:17:19;22.67;;;14.23;;
7410;SDS011;3747;48.628;9.058;2023-03-01T00:19:46;20.57;;;13.97;;
7410;SDS011;3747;48.628;9.058;2023-03-01T00:22:14;21.97;;;14.20;;
7410;SDS011;3747;48.628;9.058;2023-03-01T00:24:41;20.33;;;13.93;;
7410;SDS011;3747;48.628;9.058;2023-03-01T00:27:07;22.30;;;15.10;;
7410;SDS011;3747;48.628;9.058;2023-03-01T00:29:34;23.57;;;14.23;;
7410;SDS011;3747;48.628;9.058;2023-03-01T00:32:01;25.73;;;15.13;;
7410;SDS011;3747;48.628;9.058;2023-03-01T00:34:27;27.47;;;15.13;;
7410;SDS011;3747;48.628;9.058;2023-03-01T00:36:54;25.33;;;15.10;;
7410;SDS011;3747;48.628;9.058;2023-03-01T00:39:31;24.33;;;16.07;;
7410;SDS011;3747;48.628;9.058;2023-03-01T00:41:58;31.47;;;16.43;;
7410;SDS011;3747;48.628;9.058;2023-03-01T00:44:25;25.20;;;14.97;;
7410;SDS011;3747;48.628;9.058;2023-03-01T00:46:53;27.97;;;14.77;;
7410;SDS011;3747;48.628;9.058;2023-03-01T00:49:19;26.33;;;15.50;;
7410;SDS011;3747;48.628;9.058;2023-03-01T00:51:46;23.77;;;14.90;;
7410;SDS011;3747;48.628;9.058;2023-03-01T00:54:13;25.50;;;16.40;;
7410;SDS011;3747;48.628;9.058;2023-03-01T00:56:41;23.67;;;15.63;;
7410;SDS011;3747;48.628;9.058;2023-03-01T00:59:07;24.23;;;15.83;;
7410;SDS011;3747;48.628;9.058;2023-03-01T01:01:34;27.77;;;15.43;;
7410;SDS011;3747;48.628;9.058;2023-03-01T01:04:02;22.63;;;14.80;;
7410;SDS011;3747;48.628;9.058;2023-03-01T01:06:31;24.40;;;16.07;;
7410;SDS011;3747;48.628;9.058;2023-03-01T01:08:59;25.30;;;15.77;;
7410;SDS011;3747;48.628;9.058;2023-03-01T01:11:27;28.13;;;15.70;;
7410;SDS011;3747;48.628;9.058;2023-03-01T01:13:56;28.70;;;16.80;;
7410;SDS011;3747;48.628;9.058;2023-03-01T01:16:24;29.07;;;16.97;;
7410;SDS011;3747;48.628;9.058;2023-03-01T01:18:53;23.67;;;14.67;;
7410;SDS011;3747;48.628;9.058;2023-03-01T01:21:21;23.57;;;14.47;;
7410;SDS011;3747;48.628;9.058;2023-03-01T01:23:49;26.17;;;14.93;;
7410;SDS011;3747;48.628;9.058;2023-03-01T01:26:17;25.83;;;15.37;;
7410;SDS011;3747;48.628;9.058;2023-03-01T01:28:45;24.20;;;14.77;;
7410;SDS011;3747;48.628;9.058;2023-03-01T01:31:14;24.30;;;14.50;;
7410;SDS011;3747;48.628;9.058;2023-03-01T01:33:41;23.93;;;14.90;;
7410;SDS011;3747;48.628;9.058;2023-03-01T01:36:09;24.53;;;15.43;;
7410;SDS011;3747;48.628;9.058;2023-03-01T01:38:36;23.13;;;14.93;;
7410;SDS011;3747;48.628;9.058;2023-03-01T01:41:04;24.50;;;14.07;;
7410;SDS011;3747;48.628;9.058;2023-03-01T01:43:32;22.77;;;15.87;;
7410;SDS011;3747;48.628;9.058;2023-03-01T01:46:01;25.07;;;15.60;;
7410;SDS011;3747;48.628;9.058;2023-03-01T01:48:32;24.43;;;14.77;;
7410;SDS011;3747;48.628;9.058;2023-03-01T01:51:06;22.27;;;15.03;;
7410;SDS011;3747;48.628;9.058;2023-03-01T01:53:35;23.20;;;14.33;;
7410;SDS011;3747;48.628;9.058;2023-03-01T01:56:04;23.13;;;13.87;;
7410;SDS011;3747;48.628;9.058;2023-03-01T01:58:35;23.60;;;15.80;;
7410;SDS011;3747;48.628;9.058;2023-03-01T02:01:02;23.67;;;14.80;;
7410;SDS011;3747;48.628;9.058;2023-03-01T02:03:32;22.93;;;13.90;;
7410;SDS011;3747;48.628;9.058;2023-03-01T02:06:03;27.70;;;15.70;;
7410;SDS011;3747;48.628;9.058;2023-03-01T02:08:34;24.80;;;16.00;;
7410;SDS011;3747;48.628;9.058;2023-03-01T02:11:03;22.67;;;15.03;;
7410;SDS011;3747;48.628;9.058;2023-03-01T02:13:31;25.03;;;14.33;;
7410;SDS011;3747;48.628;9.058;2023-03-01T02:16:02;22.00;;;14.10;;
7410;SDS011;3747;48.628;9.058;2023-03-01T02:18:29;24.70;;;14.63;;
7410;SDS011;3747;48.628;9.058;2023-03-01T02:21:01;28.13;;;16.40;;
7410;SDS011;3747;48.628;9.058;2023-03-01T02:23:34;24.53;;;14.13;;
7410;SDS011;3747;48.628;9.058;2023-03-01T02:26:04;23.00;;;13.73;;
7410;SDS011;3747;48.628;9.058;2023-03-01T02:28:37;22.70;;;14.53;;
7410;SDS011;3747;48.628;9.058;2023-03-01T02:31:06;23.97;;;14.00;;
7410;SDS011;3747;48.628;9.058;2023-03-01T02:33:52;21.53;;;13.90;;
7410;SDS011;3747;48.628;9.058;2023-03-01T02:36:20;21.20;;;13.93;;
7410;SDS011;3747;48.628;9.058;2023-03-01T02:38:51;19.57;;;13.30;;
7410;SDS011;3747;48.628;9.058;2023-03-01T02:41:21;21.83;;;13.67;;
7410;SDS011;3747;48.628;9.058;2023-03-01T02:43:52;22.97;;;13.83;;
7410;SDS011;3747;48.628;9.058;2023-03-01T02:46:20;21.30;;;13.40;;
7410;SDS011;3747;48.628;9.058;2023-03-01T02:48:48;20.73;;;13.47;;
7410;SDS011;3747;48.628;9.058;2023-03-01T02:51:24;24.17;;;13.73;;
7410;SDS011;3747;48.628;9.058;2023-03-01T02:53:59;21.93;;;13.07;;
7410;SDS011;3747;48.628;9.058;2023-03-01T02:56:38;23.57;;;14.10;;
7410;SDS011;3747;48.628;9.058;2023-03-01T02:59:06;20.37;;;13.57;;
7410;SDS011;3747;48.628;9.058;2023-03-01T03:01:34;23.07;;;14.43;;
7410;SDS011;3747;48.628;9.058;2023-03-01T03:04:03;19.00;;;13.03;;
7410;SDS011;3747;48.628;9.058;2023-03-01T03:06:31;22.23;;;13.53;;
7410;SDS011;3747;48.628;9.058;2023-03-01T03:08:58;21.00;;;13.40;;
7410;SDS011;3747;48.628;9.058;2023-03-01T03:11:25;25.60;;;13.63;;
7410;SDS011;3747;48.628;9.058;2023-03-01T03:13:52;22.17;;;14.53;;
7410;SDS011;3747;48.628;9.058;2023-03-01T03:16:20;21.70;;;14.07;;
7410;SDS011;3747;48.628;9.058;2023-03-01T03:18:47;18.53;;;13.43;;
7410;SDS011;3747;48.628;9.058;2023-03-01T03:21:14;20.80;;;14.17;;
7410;SDS011;3747;48.628;9.058;2023-03-01T03:23:42;21.50;;;14.73;;
7410;SDS011;3747;48.628;9.058;2023-03-01T03:26:09;20.43;;;13.63;;
7410;SDS011;3747;48.628;9.058;2023-03-01T03:28:38;20.73;;;14.23;;
7410;SDS011;3747;48.628;9.058;2023-03-01T03:31:05;20.87;;;13.93;;
7410;SDS011;3747;48.628;9.058;2023-03-01T03:33:34;23.70;;;15.50;;
7410;SDS011;3747;48.628;9.058;2023-03-01T03:36:01;25.93;;;14.73;;
7410;SDS011;3747;48.628;9.058;2023-03-01T03:38:29;21.43;;;14.33;;
7410;SDS011;3747;48.628;9.058;2023-03-01T03:40:59;23.57;;;15.00;;
7410;SDS011;3747;48.628;9.058;2023-03-01T03:43:28;21.70;;;13.90;;
7410;SDS011;3747;48.628;9.058;2023-03-01T03:45:56;23.27;;;13.63;;
7410;SDS011;3747;48.628;9.058;2023-03-01T03:48:23;24.43;;;14.40;;
7410;SDS011;3747;48.628;9.058;2023-03-01T03:50:52;23.70;;;14.20;;
7410;SDS011;3747;48.628;9.058;2023-03-01T03:53:21;21.73;;;14.10;;
7410;SDS011;3747;48.628;9.058;2023-03-01T03:55:49;22.37;;;14.03;;
7410;SDS011;3747;48.628;9.058;2023-03-01T03:58:17;25.20;;;14.70;;
7410;SDS011;3747;48.628;9.058;2023-03-01T04:00:45;23.57;;;14.90;;
7410;SDS011;3747;48.628;9.058;2023-03-01T04:03:14;24.87;;;14.67;;
7410;SDS011;3747;48.628;9.058;2023-03-01T04:05:43;24.88;;;17.45;;
7410;SDS011;3747;48.628;9.058;2023-03-01T04:08:12;21.40;;;14.17;;
7410;SDS011;3747;48.628;9.058;2023-03-01T04:10:39;23.13;;;16.20;;
7410;SDS011;3747;48.628;9.058;2023-03-01T04:13:09;26.10;;;15.67;;
7410;SDS011;3747;48.628;9.058;2023-03-01T04:15:37;21.90;;;14.97;;
7410;SDS011;3747;48.628;9.058;2023-03-01T04:18:05;20.57;;;14.03;;
7410;SDS011;3747;48.628;9.058;2023-03-01T04:20:32;25.30;;;14.80;;
7410;SDS011;3747;48.628;9.058;2023-03-01T04:23:01;27.13;;;16.30;;
7410;SDS011;3747;48.628;9.058;2023-03-01T04:25:36;24.70;;;15.50;;
7410;SDS011;3747;48.628;9.058;2023-03-01T04:28:04;22.47;;;13.93;;
7410;SDS011;3747;48.628;9.058;2023-03-01T04:30:31;24.47;;;15.13;;
7410;SDS011;3747;48.628;9.058;2023-03-01T04:33:00;23.50;;;14.53;;
7410;SDS011;3747;48.628;9.058;2023-03-01T04:35:28;25.60;;;15.60;;
7410;SDS011;3747;48.628;9.058;2023-03-01T04:37:55;18.93;;;13.57;;
7410;SDS011;3747;48.628;9.058;2023-03-01T04:40:22;23.00;;;14.53;;
7410;SDS011;3747;48.628;9.058;2023-03-01T04:42:50;23.07;;;14.80;;
7410;SDS011;3747;48.628;9.058;2023-03-01T04:45:17;23.63;;;14.97;;
7410;SDS011;3747;48.628;9.058;2023-03-01T04:47:45;19.10;;;13.90;;
7410;SDS011;3747;48.628;9.058;2023-03-01T04:50:13;22.03;;;14.87;;
7410;SDS011;3747;48.628;9.058;2023-03-01T04:52:41;24.77;;;14.67;;
7410;SDS011;3747;48.628;9.058;2023-03-01T04:55:09;27.40;;;15.37;;
7410;SDS011;3747;48.628;9.058;2023-03-01T04:57:36;25.13;;;15.30;;
7410;SDS011;3747;48.628;9.058;2023-03-01T05:00:05;24.30;;;15.63;;
7410;SDS011;3747;48.628;9.058;2023-03-01T05:02:45;23.33;;;15.60;;
7410;SDS011;3747;48.628;9.058;2023-03-01T05:05:14;21.77;;;14.43;;
7410;SDS011;3747;48.628;9.058;2023-03-01T05:07:41;22.33;;;14.60;;
7410;SDS011;3747;48.628;9.058;2023-03-01T05:10:08;27.67;;;16.13;;
7410;SDS011;3747;48.628;9.058;2023-03-01T05:12:35;26.30;;;16.13;;
7410;SDS011;3747;48.628;9.058;2023-03-01T05:15:05;23.53;;;15.80;;
7410;SDS011;3747;48.628;9.058;2023-03-01T05:17:32;26.20;;;16.20;;
7410;SDS011;3747;48.628;9.058;2023-03-01T05:20:00;23.43;;;14.90;;
7410;SDS011;3747;48.628;9.058;2023-03-01T05:22:29;25.40;;;15.23;;
7410;SDS011;3747;48.628;9.058;2023-03-01T05:24:55;24.60;;;15.63;;
7410;SDS011;3747;48.628;9.058;2023-03-01T05:27:22;25.53;;;16.30;;
7410;SDS011;3747;48.628;9.058;2023-03-01T05:29:48;24.33;;;15.30;;
7410;SDS011;3747;48.628;9.058;2023-03-01T05:32:17;25.10;;;16.43;;
7410;SDS011;3747;48.628;9.058;2023-03-01T05:34:43;22.43;;;14.73;;
7410;SDS011;3747;48.628;9.058;2023-03-01T05:37:11;28.47;;;16.37;;
7410;SDS011;3747;48.628;9.058;2023-03-01T05:39:38;25.60;;;15.37;;
7410;SDS011;3747;48.628;9.058;2023-03-01T05:42:09;24.73;;;16.37;;
7410;SDS011;3747;48.628;9.058;2023-03-01T05:44:36;25.73;;;16.43;;
7410;SDS011;3747;48.628;9.058;2023-03-01T05:47:04;24.67;;;16.03;;
7410;SDS011;3747;48.628;9.058;2023-03-01T05:49:32;23.67;;;15.80;;
7410;SDS011;3747;48.628;9.058;2023-03-01T05:51:59;27.33;;;16.40;;
7410;SDS011;3747;48.628;9.058;2023-03-01T05:54:26;26.33;;;15.93;;
7410;SDS011;3747;48.628;9.058;2023-03-01T05:56:53;26.93;;;16.57;;
7410;SDS011;3747;48.628;9.058;2023-03-01T05:59:19;26.00;;;16.23;;
7410;SDS011;3747;48.628;9.058;2023-03-01T06:01:46;27.73;;;16.20;;
7410;SDS011;3747;48.628;9.058;2023-03-01T06:04:13;23.37;;;16.23;;
7410;SDS011;3747;48.628;9.058;2023-03-01T06:06:41;25.30;;;15.27;;
7410;SDS011;3747;48.628;9.058;2023-03-01T06:09:07;27.80;;;16.50;;
7410;SDS011;3747;48.628;9.058;2023-03-01T06:11:35;25.93;;;16.03;;
7410;SDS011;3747;48.628;9.058;2023-03-01T06:14:02;30.47;;;17.50;;
7410;SDS011;3747;48.628;9.058;2023-03-01T06:16:29;22.13;;;15.13;;
7410;SDS011;3747;48.628;9.058;2023-03-01T06:18:56;29.67;;;15.70;;
7410;SDS011;3747;48.628;9.058;2023-03-01T06:21:22;23.80;;;15.53;;
7410;SDS011;3747;48.628;9.058;2023-03-01T06:23:50;28.00;;;16.63;;
7410;SDS011;3747;48.628;9.058;2023-03-01T06:26:17;25.27;;;15.77;;
7410;SDS011;3747;48.628;9.058;2023-03-01T06:28:44;25.33;;;16.50;;
7410;SDS011;3747;48.628;9.058;2023-03-01T06:31:11;22.50;;;15.93;;
7410;SDS011;3747;48.628;9.058;2023-03-01T06:33:38;23.53;;;16.00;;
7410;SDS011;3747;48.628;9.058;2023-03-01T06:36:05;26.67;;;16.13;;
7410;SDS011;3747;48.628;9.058;2023-03-01T06:38:32;26.37;;;15.77;;
7410;SDS011;3747;48.628;9.058;2023-03-01T06:41:00;22.43;;;16.00;;
7410;SDS011;3747;48.628;9.058;2023-03-01T06:43:27;24.43;;;15.87;;
7410;SDS011;3747;48.628;9.058;2023-03-01T06:45:54;29.17;;;15.67;;
7410;SDS011;3747;48.628;9.058;2023-03-01T06:48:20;24.73;;;14.93;;
7410;SDS011;3747;48.628;9.058;2023-03-01T06:50:47;23.37;;;15.73;;
7410;SDS011;3747;48.628;9.058;2023-03-01T06:53:14;23.77;;;14.90;;
7410;SDS011;3747;48.628;9.058;2023-03-01T06:55:41;23.53;;;15.83;;
7410;SDS011;3747;48.628;9.058;2023-03-01T06:58:09;25.37;;;15.90;;
7410;SDS011;3747;48.628;9.058;2023-03-01T07:00:36;22.00;;;13.77;;
7410;SDS011;3747;48.628;9.058;2023-03-01T07:03:05;21.10;;;15.53;;
7410;SDS011;3747;48.628;9.058;2023-03-01T07:05:33;21.17;;;14.80;;
7410;SDS011;3747;48.628;9.058;2023-03-01T07:07:59;23.57;;;15.60;;
7410;SDS011;3747;48.628;9.058;2023-03-01T07:10:26;23.70;;;14.27;;
7410;SDS011;3747;48.628;9.058;2023-03-01T07:12:54;24.47;;;15.97;;
7410;SDS011;3747;48.628;9.058;2023-03-01T07:15:23;26.53;;;17.20;;
7410;SDS011;3747;48.628;9.058;2023-03-01T07:17:50;24.87;;;15.63;;
7410;SDS011;3747;48.628;9.058;2023-03-01T07:20:17;26.57;;;16.33;;
7410;SDS011;3747;48.628;9.058;2023-03-01T07:22:47;26.23;;;15.93;;
7410;SDS011;3747;48.628;9.058;2023-03-01T07:25:14;40.77;;;23.77;;
7410;SDS011;3747;48.628;9.058;2023-03-01T07:27:41;26.73;;;15.77;;
7410;SDS011;3747;48.628;9.058;2023-03-01T07:30:08;23.13;;;15.50;;
7410;SDS011;3747;48.628;9.058;2023-03-01T07:32:37;22.43;;;14.60;;
7410;SDS011;3747;48.628;9.058;2023-03-01T07:35:04;20.40;;;13.40;;
7410;SDS011;3747;48.628;9.058;2023-03-01T07:37:31;21.83;;;15.40;;
7410;SDS011;3747;48.628;9.058;2023-03-01T07:39:57;22.77;;;16.03;;
7410;SDS011;3747;48.628;9.058;2023-03-01T07:42:24;23.33;;;15.53;;
7410;SDS011;3747;48.628;9.058;2023-03-01T07:44:51;19.43;;;14.50;;
7410;SDS011;3747;48.628;9.058;2023-03-01T07:47:17;20.10;;;14.20;;
7410;SDS011;3747;48.628;9.058;2023-03-01T07:49:45;22.30;;;15.37;;
7410;SDS011;3747;48.628;9.058;2023-03-01T07:52:12;22.43;;;14.87;;
7410;SDS011;3747;48.628;9.058;2023-03-01T07:54:39;21.90;;;14.77;;
7410;SDS011;3747;48.628;9.058;2023-03-01T07:57:08;21.40;;;14.73;;
7410;SDS011;3747;48.628;9.058;2023-03-01T07:59:35;19.97;;;15.67;;
7410;SDS011;3747;48.628;9.058;2023-03-01T08:02:02;22.07;;;16.33;;
7410;SDS011;3747;48.628;9.058;2023-03-01T08:04:29;23.47;;;14.83;;
7410;SDS011;3747;48.628;9.058;2023-03-01T08:06:57;22.07;;;15.33;;
7410;SDS011;3747;48.628;9.058;2023-03-01T08:09:23;22.83;;;15.03;;
7410;SDS011;3747;48.628;9.058;2023-03-01T08:11:50;20.40;;;16.27;;
7410;SDS011;3747;48.628;9.058;2023-03-01T08:14:17;23.67;;;19.23;;
7410;SDS011;3747;48.628;9.058;2023-03-01T08:16:43;18.10;;;14.13;;
7410;SDS011;3747;48.628;9.058;2023-03-01T08:19:11;21.90;;;16.63;;
7410;SDS011;3747;48.628;9.058;2023-03-01T08:21:38;22.23;;;15.83;;
7410;SDS011;3747;48.628;9.058;2023-03-01T08:24:07;20.00;;;15.10;;
7410;SDS011;3747;48.628;9.058;2023-03-01T08:26:35;20.63;;;14.80;;
7410;SDS011;3747;48.628;9.058;2023-03-01T08:29:02;21.63;;;16.13;;
7410;SDS011;3747;48.628;9.058;2023-03-01T08:31:30;20.27;;;15.13;;
7410;SDS011;3747;48.628;9.058;2023-03-01T08:34:00;19.53;;;14.30;;
7410;SDS011;3747;48.628;9.058;2023-03-01T08:36:29;20.00;;;15.87;;
7410;SDS011;3747;48.628;9.058;2023-03-01T08:38:57;20.87;;;15.20;;
7410;SDS011;3747;48.628;9.058;2023-03-01T08:41:26;21.13;;;14.97;;
7410;SDS011;3747;48.628;9.058;2023-03-01T08:43:53;20.37;;;15.27;;
7410;SDS011;3747;48.628;9.058;2023-03-01T08:46:23;22.80;;;14.83;;
7410;SDS011;3747;48.628;9.058;2023-03-01T08:48:51;19.73;;;14.43;;
7410;SDS011;3747;48.628;9.058;2023-03-01T08:51:18;20.40;;;15.53;;
7410;SDS011;3747;48.628;9.058;2023-03-01T08:53:46;19.23;;;14.47;;
7410;SDS011;3747;48.628;9.058;2023-03-01T08:56:14;18.00;;;14.13;;
7410;SDS011;3747;48.628;9.058;2023-03-01T08:58:44;19.77;;;15.37;;
7410;SDS011;3747;48.628;9.058;2023-03-01T09:01:13;18.37;;;14.33;;
7410;SDS011;3747;48.628;9.058;2023-03-01T09:03:40;18.83;;;15.23;;
7410;SDS011;3747;48.628;9.058;2023-03-01T09:06:08;18.40;;;13.97;;
7410;SDS011;3747;48.628;9.058;2023-03-01T09:08:35;19.10;;;15.30;;
7410;SDS011;3747;48.628;9.058;2023-03-01T09:11:02;18.87;;;14.10;;
7410;SDS011;3747;48.628;9.058;2023-03-01T09:13:30;20.53;;;15.07;;
7410;SDS011;3747;48.628;9.058;2023-03-01T09:15:58;19.13;;;15.03;;
7410;SDS011;3747;48.628;9.058;2023-03-01T09:18:26;21.43;;;16.43;;
7410;SDS011;3747;48.628;9.058;2023-03-01T09:20:53;21.97;;;15.30;;
7410;SDS011;3747;48.628;9.058;2023-03-01T09:23:26;18.87;;;14.93;;
7410;SDS011;3747;48.628;9.058;2023-03-01T09:25:53;18.40;;;14.77;;
7410;SDS011;3747;48.628;9.058;2023-03-01T09:28:19;17.50;;;14.23;;
7410;SDS011;3747;48.628;9.058;2023-03-01T09:30:48;22.67;;;14.43;;
7410;SDS011;3747;48.628;9.058;2023-03-01T09:33:16;20.97;;;15.83;;
7410;SDS011;3747;48.628;9.058;2023-03-01T09:35:42;20.07;;;15.70;;
7410;SDS011;3747;48.628;9.058;2023-03-01T09:38:11;19.57;;;14.90;;
7410;SDS011;3747;48.628;9.058;2023-03-01T09:40:41;21.73;;;15.50;;
7410;SDS011;3747;48.628;9.058;2023-03-01T09:43:13;20.03;;;16.03;;
7410;SDS011;3747;48.628;9.058;2023-03-01T09:45:45;19.33;;;14.07;;
7410;SDS011;3747;48.628;9.058;2023-03-01T09:48:17;19.03;;;14.57;;
7410;SDS011;3747;48.628;9.058;2023-03-01T09:50:47;21.97;;;14.77;;
7410;SDS011;3747;48.628;9.058;2023-03-01T09:53:15;23.57;;;14.50;;
7410;SDS011;3747;48.628;9.058;2023-03-01T09:55:44;22.10;;;15.03;;
7410;SDS011;3747;48.628;9.058;2023-03-01T09:58:29;20.80;;;15.07;;
7410;SDS011;3747;48.628;9.058;2023-03-01T10:01:04;21.30;;;14.80;;
7410;SDS011;3747;48.628;9.058;2023-03-01T10:03:44;21.47;;;13.93;;
7410;SDS011;3747;48.628;9.058;2023-03-01T10:06:21;20.83;;;14.80;;
7410;SDS011;3747;48.628;9.058;2023-03-01T10:08:50;20.93;;;14.63;;
7410;SDS011;3747;48.628;9.058;2023-03-01T10:11:22;21.83;;;14.77;;
7410;SDS011;3747;48.628;9.058;2023-03-01T10:13:55;21.40;;;14.30;;
7410;SDS011;3747;48.628;9.058;2023-03-01T10:16:38;23.03;;;16.67;;
7410;SDS011;3747;48.628;9.058;2023-03-01T10:19:13;20.53;;;14.63;;
7410;SDS011;3747;48.628;9.058;2023-03-01T10:21:44;21.03;;;15.10;;
7410;SDS011;3747;48.628;9.058;2023-03-01T10:24:13;19.97;;;14.67;;
7410;SDS011;3747;48.628;9.058;2023-03-01T10:26:46;22.27;;;15.03;;
7410;SDS011;3747;48.628;9.058;2023-03-01T10:29:21;20.20;;;13.27;;
7410;SDS011;3747;48.628;9.058;2023-03-01T10:31:51;20.63;;;14.37;;
7410;SDS011;3747;48.628;9.058;2023-03-01T10:34:22;19.40;;;14.60;;
7410;SDS011;3747;48.628;9.058;2023-03-01T10:36:55;19.63;;;14.83;;
7410;SDS011;3747;48.628;9.058;2023-03-01T10:39:25;19.10;;;14.80;;
7410;SDS011;3747;48.628;9.058;2023-03-01T10:41:54;23.23;;;15.80;;
7410;SDS011;3747;48.628;9.058;2023-03-01T10:47:16;20.47;;;14.70;;
7410;SDS011;3747;48.628;9.058;2023-03-01T10:49:54;21.13;;;14.63;;
7410;SDS011;3747;48.628;9.058;2023-03-01T10:52:27;22.97;;;15.70;;
7410;SDS011;3747;48.628;9.058;2023-03-01T10:54:57;22.23;;;15.33;;
7410;SDS011;3747;48.628;9.058;2023-03-01T10:57:30;24.50;;;15.17;;
7410;SDS011;3747;48.628;9.058;2023-03-01T11:00:10;25.47;;;16.37;;
7410;SDS011;3747;48.628;9.058;2023-03-01T11:02:45;21.23;;;14.77;;
7410;SDS011;3747;48.628;9.058;2023-03-01T11:05:18;20.00;;;14.50;;
7410;SDS011;3747;48.628;9.058;2023-03-01T11:07:49;20.50;;;15.43;;
7410;SDS011;3747;48.628;9.058;2023-03-01T11:10:19;22.20;;;14.57;;
7410;SDS011;3747;48.628;9.058;2023-03-01T11:12:47;18.37;;;15.07;;
7410;SDS011;3747;48.628;9.058;2023-03-01T11:15:24;20.03;;;14.20;;
7410;SDS011;3747;48.628;9.058;2023-03-01T11:17:52;20.93;;;14.50;;
7410;SDS011;3747;48.628;9.058;2023-03-01T11:20:24;20.63;;;14.07;;
7410;SDS011;3747;48.628;9.058;2023-03-01T11:22:56;21.23;;;14.47;;
7410;SDS011;3747;48.628;9.058;2023-03-01T11:25:27;20.97;;;14.70;;
7410;SDS011;3747;48.628;9.058;2023-03-01T11:27:58;19.17;;;14.57;;
7410;SDS011;3747;48.628;9.058;2023-03-01T11:30:31;19.03;;;14.00;;
7410;SDS011;3747;48.628;9.058;2023-03-01T11:33:04;19.93;;;13.57;;
7410;SDS011;3747;48.628;9.058;2023-03-01T11:35:42;23.50;;;14.70;;
7410;SDS011;3747;48.628;9.058;2023-03-01T11:38:15;19.40;;;14.47;;
7410;SDS011;3747;48.628;9.058;2023-03-01T11:40:47;22.93;;;14.03;;
7410;SDS011;3747;48.628;9.058;2023-03-01T11:43:20;22.07;;;15.00;;
7410;SDS011;3747;48.628;9.058;2023-03-01T11:46:14;18.23;;;14.05;;
7410;SDS011;3747;48.628;9.058;2023-03-01T11:52:18;22.23;;;14.93;;
7410;SDS011;3747;48.628;9.058;2023-03-01T11:54:57;19.77;;;13.70;;
7410;SDS011;3747;48.628;9.058;2023-03-01T11:57:39;19.07;;;13.17;;
7410;SDS011;3747;48.628;9.058;2023-03-01T12:00:19;21.33;;;14.73;;
7410;SDS011;3747;48.628;9.058;2023-03-01T12:03:00;17.60;;;12.73;;
7410;SDS011;3747;48.628;9.058;2023-03-01T12:06:05;19.70;;;12.50;;
7410;SDS011;3747;48.628;9.058;2023-03-01T12:08:51;17.47;;;12.83;;
7410;SDS011;3747;48.628;9.058;2023-03-01T12:11:29;18.53;;;12.63;;
7410;SDS011;3747;48.628;9.058;2023-03-01T12:14:14;16.57;;;12.70;;
7410;SDS011;3747;48.628;9.058;2023-03-01T12:17:05;17.73;;;12.97;;
7410;SDS011;3747;48.628;9.058;2023-03-01T12:19:45;17.80;;;13.50;;
7410;SDS011;3747;48.628;9.058;2023-03-01T12:22:28;23.00;;;16.83;;
7410;SDS011;3747;48.628;9.058;2023-03-01T12:25:06;16.40;;;13.20;;
7410;SDS011;3747;48.628;9.058;2023-03-01T12:28:02;18.20;;;13.67;;
7410;SDS011;3747;48.628;9.058;2023-03-01T12:30:41;20.00;;;14.80;;
7410;SDS011;3747;48.628;9.058;2023-03-01T12:33:21;16.13;;;13.77;;
7410;SDS011;3747;48.628;9.058;2023-03-01T12:36:03;19.67;;;14.20;;
7410;SDS011;3747;48.628;9.058;2023-03-01T12:38:40;18.13;;;13.57;;
7410;SDS011;3747;48.628;9.058;2023-03-01T12:41:15;18.17;;;14.23;;
7410;SDS011;3747;48.628;9.058;2023-03-01T12:43:58;17.93;;;15.07;;
7410;SDS011;3747;48.628;9.058;2023-03-01T12:46:38;16.57;;;13.60;;
7410;SDS011;3747;48.628;9.058;2023-03-01T12:49:19;19.30;;;14.33;;
7410;SDS011;3747;48.628;9.058;2023-03-01T12:52:00;16.50;;;13.73;;
7410;SDS011;3747;48.628;9.058;2023-03-01T12:54:36;18.90;;;14.60;;
7410;SDS011;3747;48.628;9.058;2023-03-01T12:57:06;15.70;;;12.93;;
7410;SDS011;3747;48.628;9.058;2023-03-01T12:59:39;17.57;;;14.20;;
7410;SDS011;3747;48.628;9.058;2023-03-01T13:02:13;15.53;;;13.83;;
7410;SDS011;3747;48.628;9.058;2023-03-01T13:04:50;18.20;;;13.60;;
7410;SDS011;3747;48.628;9.058;2023-03-01T13:07:29;15.93;;;13.30;;
7410;SDS011;3747;48.628;9.058;2023-03-01T13:10:03;15.63;;;13.07;;
7410;SDS011;3747;48.628;9.058;2023-03-01T13:12:43;16.10;;;13.50;;
7410;SDS011;3747;48.628;9.058;2023-03-01T13:15:27;16.17;;;12.93;;
7410;SDS011;3747;48.628;9.058;2023-03-01T13:18:02;15.63;;;12.80;;
7410;SDS011;3747;48.628;9.058;2023-03-01T13:20:31;15.97;;;12.53;;
7410;SDS011;3747;48.628;9.058;2023-03-01T13:23:02;16.50;;;12.63;;
7410;SDS011;3747;48.628;9.058;2023-03-01T13:25:32;18.00;;;13.20;;
7410;SDS011;3747;48.628;9.058;2023-03-01T13:34:42;15.60;;;12.03;;
7410;SDS011;3747;48.628;9.058;2023-03-01T13:37:19;16.97;;;13.57;;
7410;SDS011;3747;48.628;9.058;2023-03-01T13:39:59;16.93;;;13.13;;
7410;SDS011;3747;48.628;9.058;2023-03-01T13:42:33;15.80;;;13.10;;
7410;SDS011;3747;48.628;9.058;2023-03-01T13:45:04;18.10;;;13.50;;
7410;SDS011;3747;48.628;9.058;2023-03-01T13:47:41;17.40;;;13.13;;
7410;SDS011;3747;48.628;9.058;2023-03-01T13:50:18;14.93;;;11.60;;
7410;SDS011;3747;48.628;9.058;2023-03-01T13:52:48;14.97;;;12.03;;
7410;SDS011;3747;48.628;9.058;2023-03-01T13:55:20;13.97;;;11.07;;
7410;SDS011;3747;48.628;9.058;2023-03-01T13:57:50;17.03;;;12.40;;
7410;SDS011;3747;48.628;9.058;2023-03-01T14:00:27;17.43;;;12.40;;
7410;SDS011;3747;48.628;9.058;2023-03-01T14:03:00;14.27;;;11.83;;
7410;SDS011;3747;48.628;9.058;2023-03-01T14:05:33;15.20;;;12.30;;
7410;SDS011;3747;48.628;9.058;2023-03-01T14:08:01;14.33;;;11.60;;
7410;SDS011;3747;48.628;9.058;2023-03-01T14:10:29;15.90;;;12.30;;
7410;SDS011;3747;48.628;9.058;2023-03-01T14:13:04;17.23;;;12.23;;
7410;SDS011;3747;48.628;9.058;2023-03-01T14:15:42;15.03;;;11.97;;
7410;SDS011;3747;48.628;9.058;2023-03-01T14:18:16;15.63;;;12.40;;
7410;SDS011;3747;48.628;9.058;2023-03-01T14:20:51;16.80;;;12.53;;
7410;SDS011;3747;48.628;9.058;2023-03-01T14:23:19;17.30;;;13.20;;
7410;SDS011;3747;48.628;9.058;2023-03-01T14:25:47;16.63;;;12.30;;
7410;SDS011;3747;48.628;9.058;2023-03-01T14:28:16;16.13;;;11.40;;
7410;SDS011;3747;48.628;9.058;2023-03-01T14:30:46;15.27;;;11.67;;
7410;SDS011;3747;48.628;9.058;2023-03-01T14:33:21;16.63;;;11.40;;
7410;SDS011;3747;48.628;9.058;2023-03-01T14:35:55;15.10;;;11.40;;
7410;SDS011;3747;48.628;9.058;2023-03-01T14:38:28;14.13;;;10.67;;
7410;SDS011;3747;48.628;9.058;2023-03-01T14:40:58;12.43;;;10.30;;
7410;SDS011;3747;48.628;9.058;2023-03-01T14:43:27;13.97;;;10.77;;
7410;SDS011;3747;48.628;9.058;2023-03-01T14:45:56;15.57;;;11.47;;
7410;SDS011;3747;48.628;9.058;2023-03-01T14:48:23;15.97;;;9.83;;
7410;SDS011;3747;48.628;9.058;2023-03-01T14:50:51;14.23;;;10.83;;
7410;SDS011;3747;48.628;9.058;2023-03-01T14:53:20;15.63;;;12.00;;
7410;SDS011;3747;48.628;9.058;2023-03-01T14:55:50;21.80;;;13.00;;
7410;SDS011;3747;48.628;9.058;2023-03-01T14:58:19;15.33;;;13.10;;
7410;SDS011;3747;48.628;9.058;2023-03-01T15:00:48;15.93;;;13.20;;
7410;SDS011;3747;48.628;9.058;2023-03-01T15:03:19;15.57;;;13.67;;
7410;SDS011;3747;48.628;9.058;2023-03-01T15:05:51;19.57;;;13.33;;
7410;SDS011;3747;48.628;9.058;2023-03-01T15:08:20;16.63;;;13.87;;
7410;SDS011;3747;48.628;9.058;2023-03-01T15:10:56;19.50;;;14.13;;
7410;SDS011;3747;48.628;9.058;2023-03-01T15:13:25;20.37;;;14.50;;
7410;SDS011;3747;48.628;9.058;2023-03-01T15:15:59;17.07;;;13.50;;
7410;SDS011;3747;48.628;9.058;2023-03-01T15:18:29;18.97;;;14.07;;